Time;durP1;ratioP1;P1;durP2;ratioP2;P2;SDS_P1;SDS_P2;PMS_P1;PMS_P2;Temp;Humidity;BMP_temperature;BMP_pressure;BME280_temperature;BME280_humidity;BME280_pressure;Samples;Min_cycle;Max_cycle;Signal;HPM_P1;HPM_P2
2022/10/29 00:00:52;;;;;;;4.90;2.47;;;;;19.30;101995.00;;;;5048633;28;20206;-75
2022/10/29 00:03:21;;;;;;;11.57;3.17;;;;;19.30;101985.00;;;;5048555;28;20207;-76
2022/10/29 00:05:59;;;;;;;8.15;2.53;;;;;19.20;101991.00;;;;5048622;28;20588;-75
2022/10/29 00:08:30;;;;;;;3.60;2.40;;;;;19.30;101974.00;;;;5047927;28;20199;-75
2022/10/29 00:11:06;;;;;;;6.57;2.83;;;;;19.20;101983.00;;;;5048237;28;20226;-75
2022/10/29 00:13:33;;;;;;;3.47;2.47;;;;;19.30;101967.00;;;;5048522;28;20206;-75
2022/10/29 00:16:03;;;;;;;4.55;2.47;;;;;19.30;101969.00;;;;5047784;28;20199;-75
2022/10/29 00:18:31;;;;;;;6.57;3.05;;;;;19.30;101972.00;;;;5048353;28;20234;-75
2022/10/29 00:21:02;;;;;;;3.83;2.42;;;;;19.20;101969.00;;;;5048221;28;20661;-75
2022/10/29 00:23:31;;;;;;;5.75;2.50;;;;;19.20;101966.00;;;;5048272;28;20215;-75
2022/10/29 00:25:59;;;;;;;6.13;2.17;;;;;19.20;101970.00;;;;5048171;28;20204;-75
2022/10/29 00:28:26;;;;;;;9.90;2.63;;;;;19.20;101977.00;;;;5047971;28;20199;-75
2022/10/29 00:30:53;;;;;;;4.90;2.20;;;;;19.20;101970.00;;;;5048360;28;20208;-75
2022/10/29 00:33:21;;;;;;;5.93;2.20;;;;;19.20;101967.00;;;;5048262;28;20238;-75
2022/10/29 00:36:07;;;;;;;5.85;2.13;;;;;19.10;101969.00;;;;5047539;28;20689;-75
2022/10/29 00:38:39;;;;;;;5.40;2.72;;;;;19.20;101960.00;;;;5048401;28;20227;-74
2022/10/29 00:41:08;;;;;;;5.03;2.50;;;;;19.20;101958.00;;;;5047803;28;20211;-74
2022/10/29 00:43:37;;;;;;;5.07;2.55;;;;;19.20;101954.00;;;;5047946;28;20211;-74
2022/10/29 00:46:08;;;;;;;5.22;2.25;;;;;19.20;101956.00;;;;5048088;28;20203;-74
2022/10/29 00:48:40;;;;;;;4.95;1.98;;;;;19.20;101950.00;;;;5048101;28;20200;-74
2022/10/29 00:51:11;;;;;;;6.25;1.70;;;;;19.10;101951.00;;;;5047927;28;20222;-74
2022/10/29 00:53:44;;;;;;;5.35;1.60;;;;;19.10;101946.00;;;;5047862;28;20215;-74
2022/10/29 00:56:12;;;;;;;11.82;2.28;;;;;19.10;101946.00;;;;5047074;28;20207;-74
2022/10/29 00:58:40;;;;;;;6.63;1.75;;;;;19.10;101950.00;;;;5047976;28;20675;-74
2022/10/29 01:01:08;;;;;;;6.07;2.53;;;;;19.10;101958.00;;;;5048222;28;20214;-74
2022/10/29 01:03:35;;;;;;;2.75;1.60;;;;;19.10;101950.00;;;;5047891;28;20211;-74
2022/10/29 01:06:04;;;;;;;4.90;1.42;;;;;19.10;101951.00;;;;5047721;28;20206;-74
2022/10/29 01:08:31;;;;;;;4.05;2.10;;;;;19.10;101946.00;;;;5048493;28;20608;-74
2022/10/29 01:11:15;;;;;;;6.75;1.90;;;;;19.00;101949.00;;;;5051583;28;20206;-74
2022/10/29 01:13:54;;;;;;;5.68;1.90;;;;;19.00;101946.00;;;;5051849;28;20211;-74
2022/10/29 01:16:30;;;;;;;2.78;1.52;;;;;19.00;101949.00;;;;5051214;28;20199;-74
2022/10/29 01:19:06;;;;;;;5.53;1.48;;;;;19.00;101946.00;;;;5050963;28;20210;-75
2022/10/29 01:21:39;;;;;;;3.75;1.95;;;;;19.00;101947.00;;;;5051113;28;20673;-75
2022/10/29 01:24:35;;;;;;;5.45;1.77;;;;;18.90;101936.00;;;;5051409;28;20819;-75
2022/10/29 01:27:58;;;;;;;6.95;1.65;;;;;18.80;101938.00;;;;5050959;28;20207;-75
2022/10/29 01:30:54;;;;;;;4.25;1.88;;;;;18.80;101930.00;;;;4989467;28;20202;-75
2022/10/29 01:33:25;;;;;;;6.57;1.90;;;;;18.90;101921.00;;;;4989125;28;20229;-75
2022/10/29 01:35:58;;;;;;;5.15;1.65;;;;;18.90;101918.00;;;;5039705;28;20208;-75
2022/10/29 01:38:34;;;;;;;5.63;1.88;;;;;18.90;101920.00;;;;5050432;28;20224;-75
2022/10/29 01:41:07;;;;;;;4.55;2.05;;;;;18.90;101922.00;;;;5051363;28;20204;-75
2022/10/29 01:43:39;;;;;;;4.18;2.17;;;;;18.90;101925.00;;;;5050937;28;20210;-75
2022/10/29 01:46:12;;;;;;;7.22;2.17;;;;;18.90;101913.00;;;;5051113;28;20195;-75
2022/10/29 01:48:45;;;;;;;3.25;2.03;;;;;18.90;101916.00;;;;5051391;28;20215;-75
2022/10/29 01:51:18;;;;;;;10.13;3.30;;;;;18.90;101909.00;;;;5050098;28;20713;-75
2022/10/29 01:53:46;;;;;;;10.75;2.95;;;;;18.90;101906.00;;;;5050751;28;20257;-75
2022/10/29 01:56:13;;;;;;;6.05;2.40;;;;;18.90;101906.00;;;;5050953;28;20191;-75
2022/10/29 01:58:43;;;;;;;11.75;3.47;;;;;18.90;101894.00;;;;5051059;28;20234;-75
2022/10/29 02:01:23;;;;;;;7.53;3.50;;;;;18.80;101896.00;;;;5049546;28;20227;-75
2022/10/29 02:03:56;;;;;;;8.23;3.35;;;;;18.90;101896.00;;;;5050871;28;20207;-75
2022/10/29 02:06:33;;;;;;;14.50;4.05;;;;;18.90;101889.00;;;;5050571;28;20200;-75
2022/10/29 02:09:12;;;;;;;7.70;3.60;;;;;18.90;101879.00;;;;5050450;28;20204;-75
2022/10/29 02:11:49;;;;;;;6.88;3.75;;;;;18.90;101870.00;;;;5051011;28;20209;-75
2022/10/29 02:14:22;;;;;;;8.60;3.60;;;;;18.90;101880.00;;;;5050480;28;20207;-75
2022/10/29 02:16:53;;;;;;;8.93;3.28;;;;;19.00;101887.00;;;;5050559;28;20206;-75
2022/10/29 02:19:20;;;;;;;6.18;3.40;;;;;19.00;101886.00;;;;5049987;28;20204;-75
2022/10/29 02:21:50;;;;;;;5.00;2.83;;;;;19.00;101881.00;;;;5049154;28;20199;-75
2022/10/29 02:24:17;;;;;;;4.40;2.75;;;;;19.00;101885.00;;;;5049653;28;20204;-75
2022/10/29 02:26:44;;;;;;;6.75;3.42;;;;;19.00;101880.00;;;;5050714;28;20203;-75
2022/10/29 02:29:11;;;;;;;4.22;3.03;;;;;19.00;101896.00;;;;5050116;28;20673;-75
2022/10/29 02:31:38;;;;;;;4.38;2.60;;;;;19.00;101900.00;;;;5050499;28;20204;-75
2022/10/29 02:34:07;;;;;;;6.50;3.10;;;;;19.00;101899.00;;;;5049746;28;20234;-75
2022/10/29 02:36:35;;;;;;;7.18;3.42;;;;;19.10;101904.00;;;;5050078;28;20211;-76
2022/10/29 02:39:02;;;;;;;3.17;2.58;;;;;19.10;101900.00;;;;5049463;28;20223;-76
2022/10/29 02:41:29;;;;;;;4.80;2.55;;;;;19.10;101894.00;;;;5049528;28;20199;-76
2022/10/29 02:43:56;;;;;;;3.90;2.78;;;;;19.10;101880.00;;;;5049766;28;20210;-76
2022/10/29 02:46:25;;;;;;;7.00;2.72;;;;;19.10;101871.00;;;;5049587;28;20196;-76
2022/10/29 02:48:52;;;;;;;4.22;2.90;;;;;19.10;101858.00;;;;5049718;28;20521;-76
2022/10/29 02:51:20;;;;;;;5.53;2.35;;;;;19.10;101860.00;;;;5049502;28;20206;-76
2022/10/29 02:53:48;;;;;;;3.78;2.60;;;;;19.10;101873.00;;;;5049013;28;20210;-76
2022/10/29 02:56:15;;;;;;;3.20;2.58;;;;;19.10;101858.00;;;;5049348;28;20230;-76
2022/10/29 02:58:42;;;;;;;5.88;2.45;;;;;19.10;101851.00;;;;5049640;28;20636;-75
2022/10/29 03:01:09;;;;;;;6.57;2.63;;;;;19.10;101849.00;;;;5048932;28;20704;-76
2022/10/29 03:03:37;;;;;;;6.85;2.97;;;;;19.10;101853.00;;;;5049395;28;20204;-76
2022/10/29 03:06:04;;;;;;;3.97;2.30;;;;;19.10;101839.00;;;;5049628;28;20203;-76
2022/10/29 03:08:33;;;;;;;6.47;2.65;;;;;19.10;101847.00;;;;5049187;28;20214;-76
2022/10/29 03:11:00;;;;;;;4.18;2.45;;;;;19.20;101853.00;;;;5048951;28;20681;-75
2022/10/29 03:13:27;;;;;;;3.38;2.70;;;;;19.20;101846.00;;;;5048392;28;20202;-75
2022/10/29 03:15:55;;;;;;;4.80;3.00;;;;;19.20;101839.00;;;;5048992;28;20195;-75
2022/10/29 03:18:22;;;;;;;7.10;2.33;;;;;19.20;101843.00;;;;5049106;28;20264;-76
2022/10/29 03:20:49;;;;;;;3.63;2.95;;;;;19.20;101841.00;;;;5049185;28;20692;-75
2022/10/29 03:23:16;;;;;;;7.93;3.22;;;;;19.20;101837.00;;;;5048381;28;20199;-75
2022/10/29 03:25:51;;;;;;;5.75;3.25;;;;;19.20;101839.00;;;;5048591;28;20206;-76
2022/10/29 03:28:18;;;;;;;5.13;2.85;;;;;19.20;101842.00;;;;5048864;28;20256;-76
2022/10/29 03:30:45;;;;;;;3.55;3.25;;;;;19.20;101847.00;;;;5049549;28;20200;-76
2022/10/29 03:33:12;;;;;;;3.65;3.03;;;;;19.20;101842.00;;;;5048085;28;20249;-76
2022/10/29 03:35:40;;;;;;;3.47;2.90;;;;;19.20;101847.00;;;;5048729;28;20671;-75
2022/10/29 03:38:07;;;;;;;3.20;2.90;;;;;19.20;101847.00;;;;5048453;28;20220;-76
2022/10/29 03:40:35;;;;;;;3.95;2.67;;;;;19.20;101846.00;;;;5049245;28;20203;-76
2022/10/29 03:43:03;;;;;;;4.40;2.92;;;;;19.20;101851.00;;;;5049072;28;20658;-76
2022/10/29 03:45:30;;;;;;;7.70;3.03;;;;;19.20;101849.00;;;;5048700;28;20672;-76
2022/10/29 03:47:58;;;;;;;2.40;2.20;;;;;19.20;101851.00;;;;5048304;28;20199;-76
2022/10/29 03:50:25;;;;;;;6.05;2.53;;;;;19.20;101851.00;;;;5048621;28;20195;-76
2022/10/29 03:52:52;;;;;;;4.10;3.28;;;;;19.20;101843.00;;;;5048798;28;20504;-76
2022/10/29 03:55:19;;;;;;;4.50;2.85;;;;;19.20;101842.00;;;;5048027;28;20200;-76
2022/10/29 03:57:47;;;;;;;3.10;2.78;;;;;19.20;101847.00;;;;5048302;28;20220;-76
2022/10/29 04:00:16;;;;;;;4.50;3.20;;;;;19.20;101847.00;;;;5048481;28;20194;-76
2022/10/29 04:02:43;;;;;;;4.10;2.28;;;;;19.20;101843.00;;;;5048803;28;20203;-76
2022/10/29 04:05:11;;;;;;;5.78;3.03;;;;;19.20;101846.00;;;;5048503;28;20196;-76
2022/10/29 04:07:38;;;;;;;6.63;2.83;;;;;19.20;101845.00;;;;5047983;28;20199;-76
2022/10/29 04:10:06;;;;;;;4.82;3.13;;;;;19.20;101848.00;;;;5048667;28;20214;-76
2022/10/29 04:12:33;;;;;;;3.55;3.17;;;;;19.20;101850.00;;;;5048079;28;20210;-76
2022/10/29 04:15:00;;;;;;;6.68;3.42;;;;;19.20;101845.00;;;;5047603;28;20203;-76
2022/10/29 04:17:29;;;;;;;6.15;3.38;;;;;19.20;101845.00;;;;5048008;28;20207;-76
2022/10/29 04:19:56;;;;;;;5.22;3.38;;;;;19.20;101840.00;;;;5048281;28;20207;-76
2022/10/29 04:22:24;;;;;;;3.88;3.47;;;;;19.20;101841.00;;;;5048593;28;20262;-76
2022/10/29 04:24:51;;;;;;;3.53;2.92;;;;;19.20;101831.00;;;;5048283;28;20210;-76
2022/10/29 04:27:18;;;;;;;3.97;3.25;;;;;19.20;101824.00;;;;5047818;28;20294;-77
2022/10/29 04:29:45;;;;;;;8.70;3.70;;;;;19.20;101814.00;;;;5048064;28;20204;-76
2022/10/29 04:32:12;;;;;;;8.57;3.42;;;;;19.20;101814.00;;;;5047760;28;20199;-76
2022/10/29 04:34:41;;;;;;;7.90;3.70;;;;;19.20;101811.00;;;;5047648;28;20215;-76
2022/10/29 04:37:08;;;;;;;5.40;4.00;;;;;19.20;101815.00;;;;5047426;28;20551;-76
2022/10/29 04:39:35;;;;;;;5.45;3.75;;;;;19.20;101815.00;;;;5047854;28;20712;-76
2022/10/29 04:42:03;;;;;;;3.60;3.03;;;;;19.20;101817.00;;;;5048112;28;20211;-76
2022/10/29 04:44:30;;;;;;;4.15;3.35;;;;;19.20;101819.00;;;;5050259;28;20204;-76
2022/10/29 04:46:57;;;;;;;4.82;3.83;;;;;19.20;101807.00;;;;5052418;28;20200;-76
2022/10/29 04:49:24;;;;;;;7.57;3.90;;;;;19.20;101819.00;;;;5052127;28;20576;-76
2022/10/29 04:51:53;;;;;;;6.93;3.55;;;;;19.20;101814.00;;;;5051638;28;20700;-76
2022/10/29 04:54:20;;;;;;;4.85;3.97;;;;;19.20;101814.00;;;;5051546;28;20199;-76
2022/10/29 04:56:48;;;;;;;7.57;4.35;;;;;19.30;101811.00;;;;5052043;28;20199;-76
2022/10/29 04:59:15;;;;;;;7.00;4.75;;;;;19.30;101810.00;;;;5051530;28;20234;-76
2022/10/29 05:01:42;;;;;;;8.23;4.72;;;;;19.30;101807.00;;;;5051855;28;20200;-76
2022/10/29 05:04:09;;;;;;;10.07;4.68;;;;;19.30;101803.00;;;;5051070;28;20214;-76
2022/10/29 05:06:37;;;;;;;8.82;4.57;;;;;19.30;101805.00;;;;5051776;28;20231;-76
2022/10/29 05:09:05;;;;;;;5.70;4.45;;;;;19.30;101808.00;;;;5051982;28;20215;-76
2022/10/29 05:11:33;;;;;;;6.38;4.50;;;;;19.30;101808.00;;;;5051799;28;20576;-77
2022/10/29 05:14:01;;;;;;;6.82;4.28;;;;;19.30;101796.00;;;;5051179;28;20214;-76
2022/10/29 05:16:28;;;;;;;7.97;4.55;;;;;19.30;101786.00;;;;5051596;28;20219;-76
2022/10/29 05:18:55;;;;;;;8.95;5.13;;;;;19.40;101785.00;;;;5050817;28;20720;-76
2022/10/29 05:21:22;;;;;;;8.02;5.30;;;;;19.40;101786.00;;;;5051132;28;20203;-76
2022/10/29 05:23:49;;;;;;;6.85;4.22;;;;;19.40;101776.00;;;;5051142;28;20204;-76
2022/10/29 05:26:18;;;;;;;8.50;5.30;;;;;19.40;101773.00;;;;5051613;28;20203;-76
2022/10/29 05:28:48;;;;;;;5.60;4.63;;;;;19.40;101776.00;;;;5051562;28;20207;-76
2022/10/29 05:31:18;;;;;;;7.25;5.40;;;;;19.40;101784.00;;;;5050510;28;20203;-78
2022/10/29 05:33:45;;;;;;;6.43;4.72;;;;;19.40;101786.00;;;;5050668;28;20235;-75
2022/10/29 05:36:13;;;;;;;7.07;4.05;;;;;19.40;101780.00;;;;5051022;28;20238;-75
2022/10/29 05:38:40;;;;;;;9.15;5.85;;;;;19.40;101779.00;;;;5050526;28;20219;-76
2022/10/29 05:41:08;;;;;;;5.85;3.88;;;;;19.50;101786.00;;;;5051552;28;20510;-76
2022/10/29 05:43:36;;;;;;;9.85;4.70;;;;;19.50;101786.00;;;;5050680;28;20199;-76
2022/10/29 05:46:04;;;;;;;8.13;5.82;;;;;19.50;101777.00;;;;5051276;28;20199;-76
2022/10/29 05:48:31;;;;;;;8.38;4.95;;;;;19.50;101776.00;;;;5050680;28;20195;-76
2022/10/29 05:50:58;;;;;;;7.20;5.55;;;;;19.50;101780.00;;;;5051142;28;20188;-76
2022/10/29 05:53:26;;;;;;;11.05;6.00;;;;;19.60;101775.00;;;;5050611;28;20192;-76
2022/10/29 05:55:53;;;;;;;7.75;5.00;;;;;19.60;101768.00;;;;5050318;28;20200;-76
2022/10/29 05:58:20;;;;;;;9.40;5.63;;;;;19.60;101778.00;;;;5050868;28;20223;-76
2022/10/29 06:00:49;;;;;;;7.50;4.80;;;;;19.60;101775.00;;;;5050164;28;20199;-76
2022/10/29 06:03:18;;;;;;;10.13;5.30;;;;;19.60;101768.00;;;;5049963;28;20208;-76
2022/10/29 06:05:47;;;;;;;6.93;4.97;;;;;19.60;101765.00;;;;5050729;28;20215;-76
2022/10/29 06:08:15;;;;;;;6.70;5.45;;;;;19.70;101772.00;;;;5050673;28;20200;-76
2022/10/29 06:10:42;;;;;;;7.68;5.15;;;;;19.70;101775.00;;;;5050194;28;20206;-77
2022/10/29 06:13:14;;;;;;;7.28;4.50;;;;;19.60;101773.00;;;;5050051;28;20673;-76
2022/10/29 06:15:42;;;;;;;6.75;4.97;;;;;19.70;101775.00;;;;5050654;28;20196;-76
2022/10/29 06:18:10;;;;;;;7.25;5.28;;;;;19.70;101770.00;;;;5049438;28;20230;-76
2022/10/29 06:20:38;;;;;;;7.07;5.43;;;;;19.70;101769.00;;;;5049770;28;20218;-76
2022/10/29 06:23:06;;;;;;;5.72;4.95;;;;;19.80;101774.00;;;;5050294;28;20210;-77
2022/10/29 06:25:34;;;;;;;8.57;4.93;;;;;19.80;101783.00;;;;5050032;28;20214;-76
2022/10/29 06:28:03;;;;;;;8.90;5.00;;;;;19.80;101785.00;;;;5050417;28;20620;-76
2022/10/29 06:30:31;;;;;;;6.40;4.82;;;;;19.80;101786.00;;;;5050565;28;20195;-76
2022/10/29 06:32:59;;;;;;;9.30;5.18;;;;;19.80;101779.00;;;;5050043;28;20231;-76
2022/10/29 06:35:28;;;;;;;8.20;4.53;;;;;19.80;101774.00;;;;5049767;28;20214;-76
2022/10/29 06:37:55;;;;;;;7.72;5.07;;;;;19.80;101778.00;;;;5049792;28;20211;-77
2022/10/29 06:40:22;;;;;;;10.90;4.80;;;;;19.90;101782.00;;;;5049664;28;20247;-76
2022/10/29 06:42:50;;;;;;;7.43;5.15;;;;;19.90;101769.00;;;;5049048;28;20677;-77
2022/10/29 06:45:17;;;;;;;6.55;4.65;;;;;19.90;101767.00;;;;5049818;28;20203;-78
2022/10/29 06:47:45;;;;;;;8.38;4.82;;;;;19.90;101760.00;;;;5049489;28;20208;-78
2022/10/29 06:50:16;;;;;;;10.88;5.80;;;;;19.90;101760.00;;;;5048508;28;20214;-78
2022/10/29 06:52:53;;;;;;;12.30;5.82;;;;;19.90;101757.00;;;;5050481;28;20196;-75
2022/10/29 06:55:20;;;;;;;9.70;5.50;;;;;20.00;101749.00;;;;5049120;28;20191;-77
2022/10/29 06:57:47;;;;;;;8.68;5.97;;;;;20.00;101757.00;;;;5049730;28;20192;-77
2022/10/29 07:00:15;;;;;;;9.93;5.75;;;;;20.00;101744.00;;;;5048930;28;20230;-77
2022/10/29 07:02:42;;;;;;;7.72;5.60;;;;;20.00;101746.00;;;;5049925;28;20200;-76
2022/10/29 07:05:09;;;;;;;11.50;6.90;;;;;20.00;101748.00;;;;5049277;28;20214;-76
2022/10/29 07:07:36;;;;;;;7.57;5.38;;;;;20.00;101744.00;;;;5049057;28;20212;-76
2022/10/29 07:10:06;;;;;;;11.40;6.18;;;;;20.00;101757.00;;;;5049031;28;20207;-76
2022/10/29 07:12:38;;;;;;;10.13;7.00;;;;;20.10;101754.00;;;;5049569;28;20203;-76
2022/10/29 07:15:06;;;;;;;9.43;6.55;;;;;20.10;101748.00;;;;5048926;28;20702;-76
2022/10/29 07:17:34;;;;;;;11.52;6.45;;;;;20.10;101753.00;;;;5049313;28;20203;-76
2022/10/29 07:20:01;;;;;;;11.95;6.28;;;;;20.10;101759.00;;;;5048632;28;20321;-76
2022/10/29 07:22:28;;;;;;;9.90;6.10;;;;;20.20;101756.00;;;;5048859;28;20206;-76
2022/10/29 07:24:55;;;;;;;9.70;6.00;;;;;20.20;101757.00;;;;5049207;28;20207;-76
2022/10/29 07:27:24;;;;;;;8.48;6.13;;;;;20.20;101754.00;;;;5048899;28;20206;-76
2022/10/29 07:29:51;;;;;;;10.95;6.20;;;;;20.30;101761.00;;;;5048688;28;20207;-76
2022/10/29 07:32:19;;;;;;;11.68;6.38;;;;;20.30;101751.00;;;;5048335;28;20199;-76
2022/10/29 07:34:46;;;;;;;9.13;5.57;;;;;20.40;101749.00;;;;5048854;28;20430;-76
2022/10/29 07:37:13;;;;;;;11.25;6.28;;;;;20.40;101744.00;;;;5048495;28;20654;-76
2022/10/29 07:39:40;;;;;;;10.82;6.47;;;;;20.50;101751.00;;;;5048768;28;20230;-76
2022/10/29 07:42:07;;;;;;;11.50;6.45;;;;;20.50;101751.00;;;;5048502;28;20214;-76
2022/10/29 07:44:36;;;;;;;10.20;5.85;;;;;20.50;101757.00;;;;5048759;28;20669;-76
2022/10/29 07:47:03;;;;;;;9.73;6.47;;;;;20.60;101755.00;;;;5048013;28;20196;-76
2022/10/29 07:49:30;;;;;;;13.07;6.10;;;;;20.60;101761.00;;;;5048688;28;20207;-76
2022/10/29 07:51:58;;;;;;;12.57;6.85;;;;;20.70;101762.00;;;;5048415;28;20208;-76
2022/10/29 07:54:25;;;;;;;9.95;5.95;;;;;20.70;101754.00;;;;5048187;28;20567;-76
2022/10/29 07:56:52;;;;;;;10.25;7.13;;;;;20.80;101755.00;;;;5048116;28;20580;-76
2022/10/29 07:59:20;;;;;;;11.98;6.90;;;;;20.80;101755.00;;;;5047307;28;20227;-76
2022/10/29 08:01:48;;;;;;;13.93;7.22;;;;;20.90;101752.00;;;;5047765;28;20208;-76
2022/10/29 08:04:16;;;;;;;12.32;7.50;;;;;20.90;101750.00;;;;5048288;28;20214;-76
2022/10/29 08:06:43;;;;;;;8.88;6.13;;;;;21.00;101755.00;;;;5047296;28;20199;-76
2022/10/29 08:09:11;;;;;;;11.82;6.53;;;;;21.00;101740.00;;;;5048019;28;20218;-76
2022/10/29 08:11:39;;;;;;;10.90;6.30;;;;;21.10;101739.00;;;;5047827;28;20203;-76
2022/10/29 08:14:06;;;;;;;20.88;6.75;;;;;21.10;101732.00;;;;5047451;28;20744;-76
2022/10/29 08:16:34;;;;;;;10.23;6.78;;;;;21.20;101733.00;;;;5047896;28;20198;-76
2022/10/29 08:19:02;;;;;;;9.23;5.55;;;;;21.20;101731.00;;;;5046350;28;20210;-76
2022/10/29 08:21:30;;;;;;;9.95;6.75;;;;;21.30;101722.00;;;;5047127;28;20203;-76
2022/10/29 08:23:57;;;;;;;9.43;6.13;;;;;21.40;101727.00;;;;5047762;28;20207;-76
2022/10/29 08:26:24;;;;;;;12.57;7.00;;;;;21.40;101719.00;;;;5046809;28;20580;-76
2022/10/29 08:28:51;;;;;;;13.30;6.38;;;;;21.50;101722.00;;;;5047774;28;20541;-76
2022/10/29 08:31:19;;;;;;;11.13;7.15;;;;;21.60;101723.00;;;;5047655;28;20200;-76
2022/10/29 08:33:48;;;;;;;18.92;8.02;;;;;21.60;101717.00;;;;5047399;28;20254;-76
2022/10/29 08:36:17;;;;;;;13.18;7.35;;;;;21.70;101720.00;;;;5046983;28;20269;-76
2022/10/29 08:38:44;;;;;;;11.90;6.90;;;;;21.80;101718.00;;;;5047396;28;20195;-76
2022/10/29 08:41:28;;;;;;;11.85;7.45;;;;;21.80;101725.00;;;;5046913;28;20227;-76
2022/10/29 08:44:13;;;;;;;9.40;7.57;;;;;21.80;101724.00;;;;5047162;28;20200;-76
2022/10/29 08:46:45;;;;;;;9.32;6.47;;;;;22.00;101727.00;;;;5047654;28;20713;-76
2022/10/29 08:49:17;;;;;;;12.57;7.25;;;;;22.00;101723.00;;;;5046555;28;20688;-75
2022/10/29 08:51:51;;;;;;;11.30;6.55;;;;;22.10;101726.00;;;;5047355;28;20207;-75
2022/10/29 08:54:19;;;;;;;11.80;7.07;;;;;22.20;101732.00;;;;5046927;28;20208;-76
2022/10/29 08:56:49;;;;;;;10.07;6.95;;;;;22.30;101738.00;;;;5047533;28;20600;-76
2022/10/29 08:59:20;;;;;;;10.63;7.47;;;;;22.30;101740.00;;;;5046402;28;20473;-76
2022/10/29 09:01:48;;;;;;;9.18;6.35;;;;;22.40;101733.00;;;;5047762;28;20208;-76
2022/10/29 09:04:26;;;;;;;7.68;6.88;;;;;22.40;101737.00;;;;5047247;28;20195;-76
2022/10/29 09:07:19;;;;;;;10.90;7.18;;;;;22.40;101741.00;;;;5046856;28;20589;-76
2022/10/29 09:09:56;;;;;;;8.98;6.43;;;;;22.60;101746.00;;;;5047620;28;20195;-76
2022/10/29 09:12:40;;;;;;;10.23;6.75;;;;;22.60;101732.00;;;;5046572;28;20219;-76
2022/10/29 09:15:25;;;;;;;12.18;6.80;;;;;22.60;101734.00;;;;5046596;28;20196;-76
2022/10/29 09:18:20;;;;;;;13.35;6.78;;;;;22.70;101720.00;;;;5046825;28;20191;-76
2022/10/29 09:20:54;;;;;;;12.38;7.50;;;;;22.70;101720.00;;;;5046475;28;20239;-76
2022/10/29 09:23:45;;;;;;;9.63;6.65;;;;;22.80;101725.00;;;;5046902;28;20787;-75
2022/10/29 09:26:16;;;;;;;9.40;6.30;;;;;22.80;101723.00;;;;5046033;28;20193;-76
2022/10/29 09:28:54;;;;;;;9.32;7.00;;;;;22.90;101712.00;;;;5046977;28;20211;-76
2022/10/29 09:31:30;;;;;;;7.15;6.45;;;;;22.90;101710.00;;;;5050400;28;20211;-76
2022/10/29 09:34:01;;;;;;;10.85;7.13;;;;;23.00;101714.00;;;;5050425;28;20258;-76
2022/10/29 09:36:31;;;;;;;12.13;7.05;;;;;23.00;101713.00;;;;5050309;28;20211;-76
2022/10/29 09:39:02;;;;;;;8.15;6.07;;;;;23.00;101705.00;;;;5050356;28;20233;-76
2022/10/29 09:41:33;;;;;;;10.80;7.25;;;;;23.10;101689.00;;;;5050747;28;20574;-75
2022/10/29 09:44:03;;;;;;;11.65;6.45;;;;;23.10;101686.00;;;;5049815;28;20206;-76
2022/10/29 09:46:38;;;;;;;9.98;7.93;;;;;23.10;101682.00;;;;5049124;28;20191;-76
2022/10/29 09:49:22;;;;;;;11.35;7.57;;;;;23.10;101694.00;;;;5065524;28;20198;-76
2022/10/29 09:51:55;;;;;;;12.80;7.50;;;;;23.20;101695.00;;;;5069428;28;20191;-76
2022/10/29 09:54:27;;;;;;;8.45;6.78;;;;;23.20;101688.00;;;;5069542;28;20669;-76
2022/10/29 09:56:55;;;;;;;10.80;6.80;;;;;23.20;101677.00;;;;5068786;28;20549;-75
2022/10/29 09:59:29;;;;;;;9.93;6.93;;;;;23.20;101667.00;;;;5069214;28;20214;-76
2022/10/29 10:01:57;;;;;;;9.27;6.53;;;;;23.30;101670.00;;;;5070634;28;20199;-76
2022/10/29 10:04:29;;;;;;;11.10;7.20;;;;;23.30;101663.00;;;;5070774;28;20206;-76
2022/10/29 10:07:09;;;;;;;7.45;6.65;;;;;23.30;101660.00;;;;5070582;28;20195;-75
2022/10/29 10:09:56;;;;;;;10.52;7.35;;;;;23.20;101672.00;;;;5070570;28;20202;-75
2022/10/29 10:12:25;;;;;;;10.05;6.82;;;;;23.40;101672.00;;;;5070100;28;20278;-76
2022/10/29 10:15:14;;;;;;;11.23;7.03;;;;;23.30;101665.00;;;;5070521;28;20210;-76
2022/10/29 10:17:59;;;;;;;10.43;7.07;;;;;23.30;101669.00;;;;5070350;28;20203;-76
2022/10/29 10:20:34;;;;;;;10.45;7.57;;;;;23.40;101672.00;;;;5070120;28;20223;-75
2022/10/29 10:23:02;;;;;;;8.75;6.50;;;;;23.50;101680.00;;;;5070080;28;20198;-76
2022/10/29 10:25:36;;;;;;;11.98;6.78;;;;;23.60;101676.00;;;;5070429;28;20211;-76
2022/10/29 10:28:18;;;;;;;8.55;6.88;;;;;23.60;101672.00;;;;5070123;28;20218;-75
2022/10/29 10:30:45;;;;;;;10.90;6.93;;;;;23.70;101660.00;;;;5070095;28;20566;-76
2022/10/29 10:33:23;;;;;;;9.43;6.43;;;;;23.70;101656.00;;;;5069100;28;20234;-75
2022/10/29 10:35:52;;;;;;;9.25;6.53;;;;;23.80;101656.00;;;;5052919;28;20244;-75
2022/10/29 10:38:20;;;;;;;12.82;7.82;;;;;23.90;101657.00;;;;5069803;28;20202;-76
2022/10/29 10:41:01;;;;;;;12.88;6.72;;;;;23.80;101652.00;;;;5069558;28;20226;-76
2022/10/29 10:43:28;;;;;;;10.43;6.85;;;;;24.00;101647.00;;;;5069005;28;20872;-76
2022/10/29 10:45:58;;;;;;;8.27;5.90;;;;;24.00;101651.00;;;;5069451;28;20202;-76
2022/10/29 10:48:27;;;;;;;7.47;5.88;;;;;24.10;101648.00;;;;5069762;28;20211;-77
2022/10/29 10:51:11;;;;;;;11.10;7.43;;;;;24.00;101646.00;;;;5069956;28;20240;-76
2022/10/29 10:53:40;;;;;;;9.70;6.60;;;;;24.20;101641.00;;;;5069058;28;20203;-75
2022/10/29 10:56:17;;;;;;;8.63;6.18;;;;;24.20;101638.00;;;;5069572;28;20199;-76
2022/10/29 10:58:50;;;;;;;10.07;5.82;;;;;24.30;101638.00;;;;5069353;28;20195;-77
2022/10/29 11:01:23;;;;;;;7.43;5.28;;;;;24.30;101628.00;;;;5069388;28;20223;-76
2022/10/29 11:03:58;;;;;;;11.00;5.88;;;;;24.30;101632.00;;;;5069551;28;20195;-76
2022/10/29 11:06:31;;;;;;;10.02;6.40;;;;;24.40;101645.00;;;;5069426;28;20325;-76
2022/10/29 11:09:01;;;;;;;8.43;5.82;;;;;24.40;101643.00;;;;5069367;28;20209;-76
2022/10/29 11:11:34;;;;;;;7.68;5.43;;;;;24.50;101640.00;;;;5068972;28;20221;-75
2022/10/29 11:14:06;;;;;;;10.85;5.25;;;;;24.50;101650.00;;;;5069511;28;20198;-75
2022/10/29 11:16:41;;;;;;;8.05;5.00;;;;;24.60;101641.00;;;;5069130;28;20222;-75
2022/10/29 11:19:18;;;;;;;9.07;5.88;;;;;24.60;101647.00;;;;5069044;28;20210;-76
2022/10/29 11:21:52;;;;;;;8.68;5.50;;;;;24.80;101649.00;;;;5069271;28;20230;-76
2022/10/29 11:24:24;;;;;;;11.75;6.53;;;;;24.80;101637.00;;;;5068375;28;20210;-76
2022/10/29 11:26:57;;;;;;;7.85;5.82;;;;;25.00;101649.00;;;;5068449;28;20233;-76
2022/10/29 11:29:32;;;;;;;11.52;6.93;;;;;25.10;101640.00;;;;5068752;28;20668;-75
2022/10/29 11:32:04;;;;;;;8.88;7.05;;;;;25.20;101635.00;;;;5068789;28;20198;-76
2022/10/29 11:34:43;;;;;;;9.80;6.40;;;;;25.20;101619.00;;;;5068008;28;20238;-76
2022/10/29 11:37:18;;;;;;;8.98;6.07;;;;;25.30;101618.00;;;;5068192;28;20202;-77
2022/10/29 11:39:49;;;;;;;9.23;6.07;;;;;25.50;101618.00;;;;5068843;28;20198;-76
2022/10/29 11:42:17;;;;;;;10.65;7.28;;;;;25.50;101625.00;;;;5068468;28;20199;-76
2022/10/29 11:44:45;;;;;;;10.68;7.00;;;;;25.50;101626.00;;;;5068880;28;20584;-76
2022/10/29 11:47:31;;;;;;;9.43;6.22;;;;;25.50;101621.00;;;;5067954;28;20210;-77
2022/10/29 11:50:09;;;;;;;14.35;6.10;;;;;25.50;101618.00;;;;5068845;28;20209;-76
2022/10/29 11:52:46;;;;;;;8.80;6.40;;;;;25.60;101613.00;;;;5068601;28;20209;-77
2022/10/29 11:55:26;;;;;;;10.07;7.10;;;;;25.60;101603.00;;;;5068729;28;20203;-77
2022/10/29 11:57:59;;;;;;;11.55;7.20;;;;;25.60;101594.00;;;;5068199;28;20221;-77
2022/10/29 12:00:31;;;;;;;10.07;6.35;;;;;25.70;101591.00;;;;5068180;28;20226;-77
2022/10/29 12:03:16;;;;;;;14.57;6.50;;;;;25.70;101592.00;;;;5068815;28;20198;-77
2022/10/29 12:05:51;;;;;;;9.68;6.93;;;;;25.80;101592.00;;;;5068914;28;20187;-75
2022/10/29 12:08:35;;;;;;;12.73;7.30;;;;;25.80;101578.00;;;;5067492;28;20653;-74
2022/10/29 12:11:11;;;;;;;10.73;6.72;;;;;25.90;101585.00;;;;5067398;28;20198;-74
2022/10/29 12:13:53;;;;;;;13.57;7.57;;;;;25.90;101584.00;;;;5067810;28;20256;-74
2022/10/29 12:16:30;;;;;;;11.40;6.53;;;;;26.00;101585.00;;;;5067408;28;20203;-75
2022/10/29 12:19:04;;;;;;;21.40;8.02;;;;;26.10;101588.00;;;;5067590;28;20203;-74
2022/10/29 12:21:42;;;;;;;10.30;6.55;;;;;26.10;101577.00;;;;5067572;28;20225;-75
2022/10/29 12:24:28;;;;;;;10.45;7.25;;;;;26.10;101572.00;;;;5067430;28;20510;-75